Time;durP1;ratioP1;P1;durP2;ratioP2;P2;SDS_P1;SDS_P2;PMS_P1;PMS_P2;Temp;Humidity;BMP_temperature;BMP_pressure;BME280_temperature;BME280_humidity;BME280_pressure;Samples;Min_cycle;Max_cycle;Signal;HPM_P1;HPM_P2
2021/03/06 00:00:09;;;;;;;9.87;8.10;;;;;;;;;;5011968;28;20217;-73
2021/03/06 00:02:35;;;;;;;10.50;8.50;;;;;;;;;;5013604;28;20171;-73
2021/03/06 00:05:01;;;;;;;12.13;10.63;;;;;;;;;;5013797;28;20183;-72
2021/03/06 00:07:28;;;;;;;40.43;20.23;;;;;;;;;;5011976;28;20180;-74
2021/03/06 00:09:54;;;;;;;24.13;14.67;;;;;;;;;;5013752;28;20662;-73
2021/03/06 00:12:20;;;;;;;13.40;10.47;;;;;;;;;;5011136;28;20231;-74
2021/03/06 00:14:46;;;;;;;15.53;11.07;;;;;;;;;;5014886;28;20184;-73
2021/03/06 00:17:12;;;;;;;13.60;10.43;;;;;;;;;;5012549;28;20217;-72
2021/03/06 00:19:38;;;;;;;11.30;9.90;;;;;;;;;;5016164;28;20601;-72
2021/03/06 00:22:05;;;;;;;11.63;9.60;;;;;;;;;;5023965;28;20621;-72
2021/03/06 00:24:31;;;;;;;13.60;11.57;;;;;;;;;;5032438;28;20236;-73
2021/03/06 00:26:57;;;;;;;11.23;9.87;;;;;;;;;;5032225;28;20178;-73
2021/03/06 00:29:23;;;;;;;19.20;12.30;;;;;;;;;;5032003;28;20179;-73
2021/03/06 00:31:49;;;;;;;16.20;10.93;;;;;;;;;;5017033;28;20206;-73
2021/03/06 00:34:15;;;;;;;14.53;10.67;;;;;;;;;;5015053;28;20194;-73
2021/03/06 00:36:41;;;;;;;53.13;20.07;;;;;;;;;;5010586;28;20171;-75
2021/03/06 00:39:08;;;;;;;38.50;20.47;;;;;;;;;;5013489;28;20175;-73
2021/03/06 00:41:34;;;;;;;20.53;14.10;;;;;;;;;;5012386;28;20766;-74
2021/03/06 00:44:00;;;;;;;13.93;11.40;;;;;;;;;;5013139;28;20220;-72
2021/03/06 00:46:26;;;;;;;11.43;9.53;;;;;;;;;;5011885;28;20214;-74
2021/03/06 00:48:53;;;;;;;14.20;11.10;;;;;;;;;;5015671;28;20170;-74
2021/03/06 00:51:19;;;;;;;13.90;11.23;;;;;;;;;;5013374;28;20285;-74
2021/03/06 00:53:45;;;;;;;12.60;10.17;;;;;;;;;;5014391;28;20181;-74
2021/03/06 00:56:11;;;;;;;11.73;10.47;;;;;;;;;;5019130;28;20182;-74
2021/03/06 00:58:37;;;;;;;15.97;13.40;;;;;;;;;;5031105;28;20179;-74
2021/03/06 01:01:07;;;;;;;15.60;9.90;;;;;;;;;;5031005;28;20713;-73
2021/03/06 01:03:33;;;;;;;12.80;10.27;;;;;;;;;;5029842;28;20180;-75
2021/03/06 01:06:00;;;;;;;15.07;10.60;;;;;;;;;;5031138;28;20246;-74
2021/03/06 01:08:26;;;;;;;12.67;9.70;;;;;;;;;;5029768;28;20175;-74
2021/03/06 01:10:52;;;;;;;11.83;9.23;;;;;;;;;;5022460;28;20235;-74
2021/03/06 01:13:18;;;;;;;12.50;10.20;;;;;;;;;;5031132;28;20178;-74
2021/03/06 01:15:45;;;;;;;12.83;10.40;;;;;;;;;;5029845;28;20642;-75
2021/03/06 01:18:11;;;;;;;11.17;10.00;;;;;;;;;;5031146;28;20178;-74
2021/03/06 01:20:37;;;;;;;11.90;9.57;;;;;;;;;;5029690;28;20206;-73
2021/03/06 01:23:04;;;;;;;10.73;9.03;;;;;;;;;;5030879;28;20178;-73
2021/03/06 01:25:30;;;;;;;10.10;8.20;;;;;;;;;;5031257;28;20239;-74
2021/03/06 01:27:56;;;;;;;13.07;9.40;;;;;;;;;;5032220;28;20175;-72
2021/03/06 01:30:23;;;;;;;9.60;8.60;;;;;;;;;;5030782;28;20217;-72
2021/03/06 01:32:49;;;;;;;11.77;9.60;;;;;;;;;;5030981;28;20186;-72
2021/03/06 01:35:15;;;;;;;12.33;9.10;;;;;;;;;;5030785;28;20198;-73
2021/03/06 01:37:41;;;;;;;10.40;9.03;;;;;;;;;;5029482;28;20201;-73
2021/03/06 01:40:08;;;;;;;9.50;8.57;;;;;;;;;;5029677;28;20186;-74
2021/03/06 01:42:34;;;;;;;9.93;8.97;;;;;;;;;;5030884;28;20650;-74
2021/03/06 01:45:00;;;;;;;10.37;9.20;;;;;;;;;;5030752;28;20312;-74
2021/03/06 01:47:26;;;;;;;12.67;8.73;;;;;;;;;;5030546;28;20663;-73
2021/03/06 01:49:52;;;;;;;12.90;8.83;;;;;;;;;;5030639;28;20214;-74
2021/03/06 01:52:18;;;;;;;11.87;8.60;;;;;;;;;;5029135;28;20221;-74
2021/03/06 01:54:44;;;;;;;9.13;8.23;;;;;;;;;;5030731;28;20182;-74
2021/03/06 01:57:11;;;;;;;10.20;8.07;;;;;;;;;;5029645;28;20631;-73
2021/03/06 02:02:05;;;;;;;10.13;8.73;;;;;;;;;;5018044;28;20219;-79
2021/03/06 02:04:31;;;;;;;11.70;9.17;;;;;;;;;;5016654;28;20167;-78
2021/03/06 02:06:57;;;;;;;12.17;9.33;;;;;;;;;;5001372;28;20190;-79
2021/03/06 02:09:24;;;;;;;10.73;9.27;;;;;;;;;;5001474;28;20175;-79
2021/03/06 02:12:13;;;;;;;11.20;8.87;;;;;;;;;;5023620;28;20203;-79
2021/03/06 02:14:57;;;;;;;10.97;8.10;;;;;;;;;;5021735;28;20183;-79
2021/03/06 02:17:28;;;;;;;10.43;9.33;;;;;;;;;;5022840;28;20198;-79
2021/03/06 02:20:21;;;;;;;10.53;9.13;;;;;;;;;;5022327;28;20179;-79
2021/03/06 02:23:06;;;;;;;10.70;9.20;;;;;;;;;;5020177;28;20241;-79
2021/03/06 02:25:41;;;;;;;10.60;9.23;;;;;;;;;;5020980;28;20206;-79
2021/03/06 02:28:27;;;;;;;11.43;9.83;;;;;;;;;;5023080;28;20556;-79
2021/03/06 02:30:55;;;;;;;11.43;10.27;;;;;;;;;;5022058;28;20220;-79
2021/03/06 02:33:23;;;;;;;11.97;9.77;;;;;;;;;;5016350;28;20190;-78
2021/03/06 02:35:50;;;;;;;12.20;10.07;;;;;;;;;;5007809;28;20245;-78
2021/03/06 02:38:17;;;;;;;14.17;10.33;;;;;;;;;;5013159;28;20179;-79
2021/03/06 02:40:44;;;;;;;10.97;9.67;;;;;;;;;;5019979;28;20207;-79
2021/03/06 02:43:11;;;;;;;10.90;9.77;;;;;;;;;;5022740;28;20275;-78
2021/03/06 02:45:38;;;;;;;13.27;11.70;;;;;;;;;;5023245;28;20179;-79
2021/03/06 02:48:04;;;;;;;14.53;12.03;;;;;;;;;;5023844;28;20187;-78
2021/03/06 02:50:30;;;;;;;13.43;11.93;;;;;;;;;;5022758;28;20211;-79
2021/03/06 02:52:56;;;;;;;16.60;12.50;;;;;;;;;;5025046;28;20187;-79
2021/03/06 02:55:23;;;;;;;13.67;11.63;;;;;;;;;;5024382;28;20182;-79
2021/03/06 02:57:52;;;;;;;19.00;12.37;;;;;;;;;;5025279;28;20175;-78
2021/03/06 03:00:35;;;;;;;14.73;13.20;;;;;;;;;;5025005;28;20257;-79
2021/03/06 03:03:01;;;;;;;13.50;12.10;;;;;;;;;;5024822;28;20179;-79
2021/03/06 03:05:30;;;;;;;13.70;12.30;;;;;;;;;;5024837;28;20187;-78
2021/03/06 03:08:08;;;;;;;13.67;10.70;;;;;;;;;;5024877;28;20573;-78
2021/03/06 03:10:36;;;;;;;12.70;11.53;;;;;;;;;;5024735;28;20237;-79
2021/03/06 03:13:07;;;;;;;12.53;11.23;;;;;;;;;;5026769;28;20186;-79
2021/03/06 03:15:38;;;;;;;12.53;11.23;;;;;;;;;;5024035;28;20212;-79
2021/03/06 03:18:05;;;;;;;12.83;11.30;;;;;;;;;;5023328;28;20175;-78
2021/03/06 03:20:39;;;;;;;12.80;11.60;;;;;;;;;;5020543;28;20356;-79
2021/03/06 03:23:40;;;;;;;12.50;11.13;;;;;;;;;;5016574;28;20186;-79
2021/03/06 03:26:11;;;;;;;15.73;13.20;;;;;;;;;;4979978;28;20528;-79
2021/03/06 03:28:38;;;;;;;12.40;11.03;;;;;;;;;;5001247;28;20227;-79
2021/03/06 03:31:04;;;;;;;15.10;11.90;;;;;;;;;;5002282;28;20207;-78
2021/03/06 03:33:31;;;;;;;17.93;14.37;;;;;;;;;;5005848;28;20179;-78
2021/03/06 03:35:57;;;;;;;11.60;10.53;;;;;;;;;;5001433;28;20176;-78
2021/03/06 03:38:24;;;;;;;78.67;35.67;;;;;;;;;;5002941;28;20191;-79
2021/03/06 03:40:50;;;;;;;16.33;12.57;;;;;;;;;;5000863;28;20234;-79
2021/03/06 03:43:16;;;;;;;12.80;10.77;;;;;;;;;;4999434;28;20563;-78
2021/03/06 03:45:43;;;;;;;12.77;10.93;;;;;;;;;;5001509;28;21751;-79
2021/03/06 03:48:10;;;;;;;12.07;10.87;;;;;;;;;;5011130;28;20727;-79
2021/03/06 03:50:37;;;;;;;15.10;13.53;;;;;;;;;;5022254;28;20265;-78
2021/03/06 03:53:03;;;;;;;11.40;10.40;;;;;;;;;;5021775;28;20712;-78
2021/03/06 03:55:29;;;;;;;12.60;10.20;;;;;;;;;;5021798;28;20186;-79
2021/03/06 03:57:56;;;;;;;11.60;10.40;;;;;;;;;;5021015;28;20179;-78
2021/03/06 04:00:23;;;;;;;12.30;11.20;;;;;;;;;;5021112;28;20229;-78
2021/03/06 04:02:49;;;;;;;12.20;11.00;;;;;;;;;;5022451;28;20179;-78
2021/03/06 04:05:15;;;;;;;12.20;11.10;;;;;;;;;;5022524;28;20638;-78
2021/03/06 04:07:44;;;;;;;12.07;10.97;;;;;;;;;;5024382;28;20187;-78
2021/03/06 04:10:11;;;;;;;13.03;11.70;;;;;;;;;;5022986;28;20214;-78
2021/03/06 04:12:37;;;;;;;13.67;12.23;;;;;;;;;;5021834;28;20179;-78
2021/03/06 04:15:04;;;;;;;14.03;12.63;;;;;;;;;;5022539;28;20316;-79
2021/03/06 04:17:30;;;;;;;13.43;12.23;;;;;;;;;;5021114;28;20187;-78
2021/03/06 04:19:56;;;;;;;14.17;12.80;;;;;;;;;;5019369;28;20269;-78
2021/03/06 04:22:22;;;;;;;15.27;13.77;;;;;;;;;;5021287;28;20187;-79
2021/03/06 04:24:49;;;;;;;14.63;13.13;;;;;;;;;;5021593;28;20175;-79
2021/03/06 04:27:15;;;;;;;14.40;13.00;;;;;;;;;;5021608;28;20183;-78
2021/03/06 04:29:41;;;;;;;13.53;12.23;;;;;;;;;;5021299;28;20256;-78
2021/03/06 04:32:07;;;;;;;14.17;12.60;;;;;;;;;;5021206;28;20171;-78
2021/03/06 04:34:33;;;;;;;13.43;12.23;;;;;;;;;;5021521;28;20202;-79
2021/03/06 04:36:59;;;;;;;14.10;12.70;;;;;;;;;;5021330;28;20198;-79
2021/03/06 04:39:25;;;;;;;13.63;12.33;;;;;;;;;;5020130;28;20186;-78
2021/03/06 04:41:52;;;;;;;13.53;12.23;;;;;;;;;;5021435;28;20210;-79
2021/03/06 04:44:18;;;;;;;12.73;11.47;;;;;;;;;;5021501;28;20194;-78
2021/03/06 04:46:44;;;;;;;14.37;12.87;;;;;;;;;;5021758;28;20175;-78
2021/03/06 04:49:11;;;;;;;13.30;11.90;;;;;;;;;;5021155;28;20175;-79
2021/03/06 04:51:37;;;;;;;13.70;12.43;;;;;;;;;;5019705;28;20706;-79
2021/03/06 04:54:03;;;;;;;13.80;12.23;;;;;;;;;;5019954;28;20194;-79
2021/03/06 04:56:29;;;;;;;13.23;11.97;;;;;;;;;;5019416;28;20261;-78
2021/03/06 04:58:55;;;;;;;12.73;11.53;;;;;;;;;;5019656;28;20178;-78
2021/03/06 05:01:21;;;;;;;13.67;12.30;;;;;;;;;;5012666;28;20722;-78
2021/03/06 05:03:48;;;;;;;13.57;11.93;;;;;;;;;;4999006;28;20661;-78
2021/03/06 05:06:14;;;;;;;13.57;12.17;;;;;;;;;;5006374;28;20182;-79
2021/03/06 05:08:40;;;;;;;13.67;12.27;;;;;;;;;;5014640;28;20186;-79
2021/03/06 05:11:07;;;;;;;13.83;12.50;;;;;;;;;;5015419;28;20203;-78
2021/03/06 05:13:34;;;;;;;13.27;12.00;;;;;;;;;;5014769;28;20186;-78
2021/03/06 05:16:00;;;;;;;13.97;12.60;;;;;;;;;;5017172;28;20601;-78
2021/03/06 05:18:26;;;;;;;13.33;11.97;;;;;;;;;;5016746;28;20190;-78
2021/03/06 05:20:52;;;;;;;12.60;11.23;;;;;;;;;;5017923;28;20204;-78
2021/03/06 05:23:19;;;;;;;12.53;11.23;;;;;;;;;;5018603;28;20274;-78
2021/03/06 05:25:45;;;;;;;12.80;11.47;;;;;;;;;;5016157;28;20186;-78
2021/03/06 05:28:11;;;;;;;11.13;10.03;;;;;;;;;;5016758;28;20190;-78
2021/03/06 05:30:37;;;;;;;11.50;10.30;;;;;;;;;;5016458;28;20210;-78
2021/03/06 05:33:03;;;;;;;12.00;10.90;;;;;;;;;;5018688;28;20179;-78
2021/03/06 05:35:30;;;;;;;12.17;10.30;;;;;;;;;;5016567;28;20243;-78
2021/03/06 05:37:56;;;;;;;11.77;10.67;;;;;;;;;;5015897;28;20199;-78
2021/03/06 05:40:22;;;;;;;12.20;11.00;;;;;;;;;;5018041;28;20282;-78
2021/03/06 05:42:49;;;;;;;11.83;10.73;;;;;;;;;;5017592;28;20314;-78
2021/03/06 05:45:15;;;;;;;11.53;10.33;;;;;;;;;;5019000;28;20183;-77
2021/03/06 05:47:42;;;;;;;14.03;10.87;;;;;;;;;;5021786;28;20560;-78
2021/03/06 05:50:08;;;;;;;13.33;11.93;;;;;;;;;;5021372;28;20297;-78
2021/03/06 05:52:35;;;;;;;14.10;11.50;;;;;;;;;;5020440;28;20237;-78
2021/03/06 05:55:01;;;;;;;12.50;11.30;;;;;;;;;;5019366;28;20182;-78
2021/03/06 05:57:27;;;;;;;15.27;12.33;;;;;;;;;;5020312;28;20171;-78
2021/03/06 05:59:54;;;;;;;13.77;11.47;;;;;;;;;;5020873;28;20226;-78
2021/03/06 06:02:23;;;;;;;13.33;11.83;;;;;;;;;;5012189;28;20194;-78
2021/03/06 06:04:49;;;;;;;13.30;12.00;;;;;;;;;;5010535;28;20214;-78
2021/03/06 06:07:18;;;;;;;12.83;11.23;;;;;;;;;;4999554;28;20183;-79
2021/03/06 06:09:44;;;;;;;13.27;11.00;;;;;;;;;;5004290;28;20230;-78
2021/03/06 06:12:11;;;;;;;12.37;11.07;;;;;;;;;;5003110;28;20182;-79
2021/03/06 06:14:40;;;;;;;13.93;11.10;;;;;;;;;;5004503;28;20180;-79
2021/03/06 06:17:09;;;;;;;14.23;11.57;;;;;;;;;;5007621;28;20183;-79
2021/03/06 06:19:36;;;;;;;14.03;11.70;;;;;;;;;;5002186;28;20183;-79
2021/03/06 06:22:11;;;;;;;11.47;10.33;;;;;;;;;;4998912;28;20207;-79
2021/03/06 06:24:42;;;;;;;11.93;10.83;;;;;;;;;;4998994;28;20183;-78
2021/03/06 06:27:09;;;;;;;15.60;12.37;;;;;;;;;;4999874;28;20207;-79
2021/03/06 06:29:39;;;;;;;12.87;11.07;;;;;;;;;;5000825;28;20179;-78
2021/03/06 06:32:06;;;;;;;11.70;10.60;;;;;;;;;;5000770;28;20601;-78
2021/03/06 06:34:32;;;;;;;12.90;11.00;;;;;;;;;;4998930;28;20175;-78
2021/03/06 06:36:58;;;;;;;11.57;10.37;;;;;;;;;;5008627;28;20656;-79
2021/03/06 06:39:29;;;;;;;11.63;10.50;;;;;;;;;;5002793;28;20206;-79
2021/03/06 06:42:00;;;;;;;11.07;9.87;;;;;;;;;;5000424;28;20213;-79
2021/03/06 06:44:27;;;;;;;12.33;10.57;;;;;;;;;;4998753;28;20175;-79
2021/03/06 06:46:54;;;;;;;12.97;11.67;;;;;;;;;;4998669;28;20187;-79
2021/03/06 06:49:20;;;;;;;12.60;10.20;;;;;;;;;;4996563;28;20182;-79
2021/03/06 06:51:57;;;;;;;11.67;10.57;;;;;;;;;;4995735;28;20202;-79
2021/03/06 06:54:23;;;;;;;11.43;10.30;;;;;;;;;;4997059;28;20183;-79
2021/03/06 06:56:49;;;;;;;11.73;10.57;;;;;;;;;;4998007;28;20661;-79
2021/03/06 06:59:16;;;;;;;13.10;11.30;;;;;;;;;;4999667;28;20180;-78
2021/03/06 07:01:42;;;;;;;13.83;11.07;;;;;;;;;;4997332;28;20310;-78
2021/03/06 07:04:09;;;;;;;12.77;11.33;;;;;;;;;;4998341;28;20182;-78
2021/03/06 07:06:36;;;;;;;15.00;12.23;;;;;;;;;;4997806;28;20200;-79
2021/03/06 07:09:13;;;;;;;12.00;10.77;;;;;;;;;;4999054;28;20190;-79
2021/03/06 07:11:40;;;;;;;14.47;11.13;;;;;;;;;;5021100;28;20221;-78
2021/03/06 07:14:06;;;;;;;12.77;11.40;;;;;;;;;;5019577;28;20205;-78
2021/03/06 07:16:51;;;;;;;11.13;10.13;;;;;;;;;;5019992;28;20641;-78
2021/03/06 07:19:17;;;;;;;10.23;9.23;;;;;;;;;;5019094;28;20179;-78
2021/03/06 07:21:50;;;;;;;11.80;10.60;;;;;;;;;;5019268;28;20735;-78
2021/03/06 07:24:17;;;;;;;11.37;10.03;;;;;;;;;;5019579;28;20584;-78
2021/03/06 07:26:43;;;;;;;12.10;10.53;;;;;;;;;;5019446;28;20727;-78
2021/03/06 07:29:09;;;;;;;11.33;10.23;;;;;;;;;;5018501;28;20186;-78
2021/03/06 07:31:37;;;;;;;11.37;9.87;;;;;;;;;;5019991;28;20575;-78
2021/03/06 07:34:03;;;;;;;11.33;10.23;;;;;;;;;;5020623;28;20180;-78
2021/03/06 07:36:29;;;;;;;11.50;10.40;;;;;;;;;;5020501;28;20210;-78
2021/03/06 07:38:59;;;;;;;10.67;9.57;;;;;;;;;;5020149;28;20183;-78
2021/03/06 07:41:27;;;;;;;10.60;9.60;;;;;;;;;;5017446;28;20338;-78
2021/03/06 07:43:53;;;;;;;13.40;9.87;;;;;;;;;;5019164;28;20189;-79
2021/03/06 07:46:20;;;;;;;12.17;10.93;;;;;;;;;;5017454;28;20310;-78
2021/03/06 07:48:51;;;;;;;12.60;10.67;;;;;;;;;;5019880;28;20187;-78
2021/03/06 07:51:17;;;;;;;14.17;10.50;;;;;;;;;;5017868;28;20209;-78
2021/03/06 07:53:45;;;;;;;12.60;10.60;;;;;;;;;;5017599;28;20202;-78
2021/03/06 07:56:11;;;;;;;17.10;11.73;;;;;;;;;;5018658;28;20175;-78
2021/03/06 07:58:47;;;;;;;11.47;10.27;;;;;;;;;;5019714;28;20243;-78
2021/03/06 08:01:32;;;;;;;11.93;10.50;;;;;;;;;;5029455;23;20228;-76
2021/03/06 08:03:59;;;;;;;12.47;9.67;;;;;;;;;;5010588;28;20176;-76
2021/03/06 08:06:27;;;;;;;11.73;10.53;;;;;;;;;;5013566;28;20170;-76
2021/03/06 08:09:01;;;;;;;11.50;10.30;;;;;;;;;;5007075;28;20214;-76
2021/03/06 08:11:36;;;;;;;11.13;10.13;;;;;;;;;;5007280;28;20306;-76
2021/03/06 08:14:06;;;;;;;10.83;9.77;;;;;;;;;;5026077;28;20182;-75
2021/03/06 08:16:34;;;;;;;11.73;10.53;;;;;;;;;;5012703;28;20213;-76
2021/03/06 08:19:12;;;;;;;11.53;9.53;;;;;;;;;;5013428;28;20629;-76
2021/03/06 08:21:42;;;;;;;13.50;10.43;;;;;;;;;;5011296;28;20597;-76
2021/03/06 08:24:15;;;;;;;11.67;10.30;;;;;;;;;;5012057;28;20189;-77
2021/03/06 08:26:43;;;;;;;14.27;11.00;;;;;;;;;;5013540;28;20179;-77
2021/03/06 08:29:22;;;;;;;13.30;11.67;;;;;;;;;;5009599;28;20186;-77
2021/03/06 08:32:06;;;;;;;18.90;13.93;;;;;;;;;;5009841;28;21136;-77
2021/03/06 08:35:01;;;;;;;24.47;15.23;;;;;;;;;;5011940;28;20608;-77
2021/03/06 08:37:27;;;;;;;20.23;12.57;;;;;;;;;;5000700;28;20700;-76
2021/03/06 08:40:02;;;;;;;22.80;14.00;;;;;;;;;;5007695;28;20179;-76
2021/03/06 08:42:30;;;;;;;12.63;11.17;;;;;;;;;;5011330;28;20233;-77
2021/03/06 08:44:57;;;;;;;13.47;12.13;;;;;;;;;;5011387;28;20245;-77
2021/03/06 08:47:28;;;;;;;14.17;11.53;;;;;;;;;;5012362;28;20175;-77
2021/03/06 08:49:55;;;;;;;12.50;11.30;;;;;;;;;;5010702;28;20617;-76
2021/03/06 08:52:22;;;;;;;25.70;18.20;;;;;;;;;;5003655;28;20573;-77
2021/03/06 08:54:48;;;;;;;12.47;11.20;;;;;;;;;;5011926;28;20190;-77
2021/03/06 08:57:37;;;;;;;13.80;11.40;;;;;;;;;;5012522;28;20186;-76
2021/03/06 09:00:08;;;;;;;14.53;11.67;;;;;;;;;;5013437;28;20181;-77
2021/03/06 09:02:34;;;;;;;12.40;11.10;;;;;;;;;;5010750;28;20242;-77
2021/03/06 09:05:04;;;;;;;11.87;10.77;;;;;;;;;;5012084;28;20282;-76
2021/03/06 09:07:31;;;;;;;12.60;11.23;;;;;;;;;;5017358;28;20195;-77
2021/03/06 09:10:12;;;;;;;14.43;11.60;;;;;;;;;;5011357;28;20195;-77
2021/03/06 09:12:41;;;;;;;11.97;10.87;;;;;;;;;;5013242;28;20207;-77
2021/03/06 09:15:09;;;;;;;13.13;11.20;;;;;;;;;;5013238;28;20179;-77
2021/03/06 09:17:35;;;;;;;15.37;12.00;;;;;;;;;;5001008;28;20553;-77
2021/03/06 09:20:05;;;;;;;19.27;14.80;;;;;;;;;;5004712;28;20179;-77
2021/03/06 09:22:45;;;;;;;14.10;12.43;;;;;;;;;;5011554;28;20210;-77
2021/03/06 09:25:11;;;;;;;12.00;10.77;;;;;;;;;;5017810;28;20262;-77
2021/03/06 09:27:48;;;;;;;13.20;11.37;;;;;;;;;;5018245;28;20190;-77
2021/03/06 09:30:43;;;;;;;18.00;13.17;;;;;;;;;;5013935;28;20202;-76
2021/03/06 09:33:28;;;;;;;13.40;12.00;;;;;;;;;;5012075;28;20223;-77
2021/03/06 09:35:59;;;;;;;13.87;11.90;;;;;;;;;;5017661;28;20178;-78
2021/03/06 09:38:25;;;;;;;13.27;11.03;;;;;;;;;;5018078;28;20199;-77
2021/03/06 09:40:51;;;;;;;12.70;11.40;;;;;;;;;;5000116;28;20218;-77
2021/03/06 09:43:24;;;;;;;15.33;12.13;;;;;;;;;;5014874;28;20183;-78
2021/03/06 09:45:50;;;;;;;13.93;11.37;;;;;;;;;;5005267;28;20606;-77
2021/03/06 09:48:16;;;;;;;13.67;11.97;;;;;;;;;;5023507;28;20210;-76
2021/03/06 09:50:43;;;;;;;13.13;11.83;;;;;;;;;;5001569;28;20264;-77
2021/03/06 09:53:12;;;;;;;13.77;10.63;;;;;;;;;;5000050;28;20176;-77
2021/03/06 09:55:38;;;;;;;11.50;10.33;;;;;;;;;;5000345;28;20540;-77
2021/03/06 09:58:24;;;;;;;12.00;10.80;;;;;;;;;;4997969;28;20263;-76
2021/03/06 10:00:53;;;;;;;12.37;11.10;;;;;;;;;;5013868;28;20190;-77
2021/03/06 10:03:29;;;;;;;12.50;11.20;;;;;;;;;;5005978;28;20206;-76
2021/03/06 10:05:58;;;;;;;11.20;10.07;;;;;;;;;;4999426;28;20175;-77
2021/03/06 10:08:25;;;;;;;12.53;11.23;;;;;;;;;;5005440;28;20263;-77
2021/03/06 10:10:51;;;;;;;14.67;12.57;;;;;;;;;;5006649;28;20234;-77
2021/03/06 10:13:17;;;;;;;12.97;11.27;;;;;;;;;;5009511;28;20647;-78
2021/03/06 10:15:44;;;;;;;11.13;10.13;;;;;;;;;;5015900;28;20190;-77
2021/03/06 10:18:10;;;;;;;23.93;17.47;;;;;;;;;;5007390;28;20191;-76
2021/03/06 10:20:36;;;;;;;13.60;12.30;;;;;;;;;;5007873;28;20677;-76
2021/03/06 10:23:02;;;;;;;14.80;13.30;;;;;;;;;;5014797;28;20183;-76
2021/03/06 10:25:28;;;;;;;14.70;12.53;;;;;;;;;;5016813;28;20190;-77
2021/03/06 10:27:54;;;;;;;15.20;12.97;;;;;;;;;;5016064;28;20183;-77
2021/03/06 10:30:30;;;;;;;15.73;14.03;;;;;;;;;;5016793;28;20195;-78
2021/03/06 10:33:03;;;;;;;13.33;11.93;;;;;;;;;;5017600;28;20254;-77
2021/03/06 10:35:38;;;;;;;11.57;10.47;;;;;;;;;;5016850;28;20171;-77
2021/03/06 10:38:06;;;;;;;12.80;11.60;;;;;;;;;;5017221;28;20182;-75
2021/03/06 10:40:41;;;;;;;12.23;11.07;;;;;;;;;;5016128;28;20206;-77
2021/03/06 10:43:07;;;;;;;12.27;11.07;;;;;;;;;;5017465;28;20213;-77
2021/03/06 10:45:33;;;;;;;12.23;11.07;;;;;;;;;;5012869;28;20191;-77
2021/03/06 10:48:01;;;;;;;12.50;11.20;;;;;;;;;;5024368;28;20184;-77
2021/03/06 10:50:31;;;;;;;12.33;11.20;;;;;;;;;;5013297;28;20249;-77
2021/03/06 10:53:13;;;;;;;11.97;10.80;;;;;;;;;;5018435;28;20191;-78
2021/03/06 10:55:39;;;;;;;11.90;10.77;;;;;;;;;;5016527;28;20237;-77
2021/03/06 10:58:06;;;;;;;12.93;11.53;;;;;;;;;;5017648;28;20183;-76
2021/03/06 11:00:32;;;;;;;11.77;10.70;;;;;;;;;;5017428;28;20194;-78
2021/03/06 11:02:58;;;;;;;12.87;11.47;;;;;;;;;;5010787;28;20197;-77
2021/03/06 11:05:25;;;;;;;12.07;10.97;;;;;;;;;;5004697;28;20260;-77
2021/03/06 11:07:52;;;;;;;11.93;10.83;;;;;;;;;;5008333;28;20692;-77
2021/03/06 11:10:19;;;;;;;12.13;11.00;;;;;;;;;;5003324;28;20219;-78
2021/03/06 11:12:52;;;;;;;12.37;11.17;;;;;;;;;;5016442;28;20209;-77
2021/03/06 11:15:19;;;;;;;11.37;10.37;;;;;;;;;;5007256;28;20550;-77
2021/03/06 11:17:46;;;;;;;11.80;10.80;;;;;;;;;;5000157;28;20183;-77
2021/03/06 11:20:13;;;;;;;12.97;11.67;;;;;;;;;;4998431;28;20196;-77
2021/03/06 11:22:40;;;;;;;13.70;12.07;;;;;;;;;;4999064;28;20215;-78
2021/03/06 11:25:07;;;;;;;12.87;11.47;;;;;;;;;;5001008;28;20245;-77
2021/03/06 11:27:43;;;;;;;12.37;11.27;;;;;;;;;;4997574;28;20189;-77
2021/03/06 11:30:10;;;;;;;11.47;10.37;;;;;;;;;;4996649;28;20255;-78
2021/03/06 11:32:36;;;;;;;12.60;11.13;;;;;;;;;;4999375;28;20215;-77
2021/03/06 11:35:02;;;;;;;11.13;10.13;;;;;;;;;;5010566;28;20193;-78
2021/03/06 11:37:28;;;;;;;10.77;9.87;;;;;;;;;;5015981;28;20560;-77
2021/03/06 11:39:54;;;;;;;11.10;10.10;;;;;;;;;;5018816;28;20273;-78
2021/03/06 11:42:20;;;;;;;10.87;9.87;;;;;;;;;;5012898;28;20242;-78
2021/03/06 11:44:46;;;;;;;11.53;10.43;;;;;;;;;;5015089;28;20661;-78
2021/03/06 11:47:12;;;;;;;10.40;9.50;;;;;;;;;;5017448;28;20675;-78
2021/03/06 11:49:38;;;;;;;10.60;9.70;;;;;;;;;;5017970;28;20654;-78
2021/03/06 11:52:05;;;;;;;10.87;9.77;;;;;;;;;;5011828;28;20199;-78
2021/03/06 11:54:31;;;;;;;10.97;9.97;;;;;;;;;;5015917;28;20785;-78
2021/03/06 11:56:58;;;;;;;10.83;9.83;;;;;;;;;;5027769;28;20175;-78
2021/03/06 11:59:24;;;;;;;9.40;8.60;;;;;;;;;;5023035;28;20558;-78
2021/03/06 12:01:50;;;;;;;9.60;8.83;;;;;;;;;;5011620;28;20212;-78
2021/03/06 12:04:16;;;;;;;9.27;8.40;;;;;;;;;;5013003;28;20213;-77
2021/03/06 12:06:43;;;;;;;11.10;8.93;;;;;;;;;;5014525;28;20608;-77
2021/03/06 12:09:09;;;;;;;9.70;8.87;;;;;;;;;;5015377;28;20183;-78
2021/03/06 12:11:35;;;;;;;9.97;9.07;;;;;;;;;;5007522;28;20232;-78
2021/03/06 12:14:01;;;;;;;10.37;9.27;;;;;;;;;;5011255;28;20642;-76
2021/03/06 12:16:28;;;;;;;9.27;8.43;;;;;;;;;;5011563;28;20183;-77
2021/03/06 12:18:54;;;;;;;9.23;8.33;;;;;;;;;;5014348;28;20194;-77
2021/03/06 12:21:20;;;;;;;9.03;8.30;;;;;;;;;;5013579;28;20683;-78
2021/03/06 12:23:46;;;;;;;8.87;8.07;;;;;;;;;;5011782;28;20183;-79
2021/03/06 12:26:14;;;;;;;8.27;7.57;;;;;;;;;;5010000;28;20368;-78
2021/03/06 12:28:40;;;;;;;8.60;7.90;;;;;;;;;;5032988;28;20274;-78
2021/03/06 12:31:06;;;;;;;8.90;8.20;;;;;;;;;;5017410;28;20238;-78
2021/03/06 12:33:32;;;;;;;9.40;8.60;;;;;;;;;;5016459;28;20183;-78
2021/03/06 12:35:58;;;;;;;8.60;7.80;;;;;;;;;;5018208;28;20175;-79
2021/03/06 12:38:24;;;;;;;8.73;7.93;;;;;;;;;;5015362;28;20657;-77
2021/03/06 12:40:50;;;;;;;8.97;8.17;;;;;;;;;;5015716;28;20179;-78
2021/03/06 12:43:16;;;;;;;13.53;9.80;;;;;;;;;;5016714;28;20187;-78
2021/03/06 12:45:42;;;;;;;9.13;8.33;;;;;;;;;;5014456;28;20268;-78
2021/03/06 12:48:08;;;;;;;10.10;9.10;;;;;;;;;;5017053;28;20193;-79
2021/03/06 12:50:34;;;;;;;11.07;8.27;;;;;;;;;;5023247;28;20227;-78
2021/03/06 12:53:00;;;;;;;8.27;7.33;;;;;;;;;;5018199;28;20238;-79
2021/03/06 12:55:26;;;;;;;7.70;7.10;;;;;;;;;;5011641;28;20187;-79
2021/03/06 12:57:52;;;;;;;8.33;7.67;;;;;;;;;;5031119;28;20650;-78
2021/03/06 13:00:18;;;;;;;9.37;8.57;;;;;;;;;;5016815;28;20601;-78
2021/03/06 13:02:44;;;;;;;8.47;7.67;;;;;;;;;;5017746;28;20211;-78
2021/03/06 13:05:11;;;;;;;9.03;8.20;;;;;;;;;;5018259;28;20560;-78
2021/03/06 13:07:37;;;;;;;8.90;8.10;;;;;;;;;;5017337;28;20175;-78
2021/03/06 13:10:04;;;;;;;8.37;7.57;;;;;;;;;;5016827;28;20205;-79
2021/03/06 13:12:30;;;;;;;8.70;8.00;;;;;;;;;;5015929;28;20224;-78
2021/03/06 13:14:56;;;;;;;8.03;7.33;;;;;;;;;;5015649;28;20607;-78
2021/03/06 13:17:22;;;;;;;8.03;7.30;;;;;;;;;;5015369;28;20245;-78
2021/03/06 13:19:48;;;;;;;8.40;7.67;;;;;;;;;;5016562;28;20229;-78
2021/03/06 13:22:14;;;;;;;7.73;7.03;;;;;;;;;;5017198;28;20206;-78
2021/03/06 13:24:40;;;;;;;7.70;7.00;;;;;;;;;;5016544;28;20182;-78
2021/03/06 13:27:06;;;;;;;7.27;6.67;;;;;;;;;;5016981;28;20177;-77
2021/03/06 13:29:32;;;;;;;7.43;6.77;;;;;;;;;;5017032;28;20191;-78
2021/03/06 13:31:59;;;;;;;7.27;6.67;;;;;;;;;;5017733;28;20210;-78
2021/03/06 13:34:25;;;;;;;7.77;6.93;;;;;;;;;;5014707;28;20239;-78
2021/03/06 13:36:51;;;;;;;7.87;7.10;;;;;;;;;;5016371;28;20187;-79
2021/03/06 13:39:17;;;;;;;7.43;6.83;;;;;;;;;;5015804;28;20179;-78
2021/03/06 13:41:43;;;;;;;6.90;6.20;;;;;;;;;;5015896;28;20286;-78
2021/03/06 13:44:10;;;;;;;5.83;5.27;;;;;;;;;;5016364;28;20176;-78
2021/03/06 13:46:37;;;;;;;6.37;5.83;;;;;;;;;;5008422;28;20270;-78
2021/03/06 13:49:03;;;;;;;6.57;5.97;;;;;;;;;;5012150;28;20180;-79
2021/03/06 13:51:31;;;;;;;7.37;5.97;;;;;;;;;;5017547;28;20211;-78
2021/03/06 13:53:57;;;;;;;6.57;6.07;;;;;;;;;;5015929;28;20176;-79
2021/03/06 13:56:23;;;;;;;13.43;12.03;;;;;;;;;;5016645;28;20586;-78
2021/03/06 13:58:49;;;;;;;6.60;6.10;;;;;;;;;;5017249;28;20300;-78
2021/03/06 14:03:56;;;;;;;5.70;5.20;;;;;;;;;;5026398;28;20214;-77
2021/03/06 14:06:22;;;;;;;5.83;5.33;;;;;;;;;;5015919;28;20179;-77
2021/03/06 14:08:49;;;;;;;6.10;5.60;;;;;;;;;;5016980;28;20242;-78
2021/03/06 14:11:15;;;;;;;6.37;5.77;;;;;;;;;;5016932;28;20204;-78
2021/03/06 14:13:41;;;;;;;5.83;5.33;;;;;;;;;;5013005;28;20214;-78
2021/03/06 14:16:07;;;;;;;6.10;5.60;;;;;;;;;;5022836;28;20182;-77
2021/03/06 14:18:34;;;;;;;6.00;5.50;;;;;;;;;;5017110;28;20180;-78
2021/03/06 14:21:00;;;;;;;6.17;5.63;;;;;;;;;;5002856;28;20688;-78
2021/03/06 14:23:26;;;;;;;6.27;5.30;;;;;;;;;;5016630;28;20202;-77
2021/03/06 14:25:52;;;;;;;6.00;5.47;;;;;;;;;;5032292;28;20685;-77
2021/03/06 14:28:19;;;;;;;6.23;5.63;;;;;;;;;;5031536;28;20648;-78
2021/03/06 14:30:45;;;;;;;5.87;5.37;;;;;;;;;;5034841;28;20274;-77
2021/03/06 14:33:11;;;;;;;5.37;4.97;;;;;;;;;;5034085;28;20707;-77